Ashland, Massachusetts
Current Conditions -  °F | °C
As of 11:53 AM on Friday 28 Nov 2014 (Local Time) from KOWD Reporting Station
Overcast Overcast  
Wind Chill: 25°   Ceiling: 9500
Heat Index: 34°   Visibility: 10mi
Dew Point: 22°   Wind: 14mph
Humidity: 61%   Direction: 300°WNW
Pressure: 30.06"   Gusts: 20mph
Location:  42.26°N, 71.46°W
Report Text: KOWD 281653Z 30012G17KT 10SM SCT034 OVC095 01/M06 A3006 RMK AO2 SLP180 T00111056
Loading
Personal Weather Stations






























Interactive Weather Map New forecast layout! Learn more

10-Day Weather Forecast

Advertisements
Track Severe Weather on mobile